Time;durP1;ratioP1;P1;durP2;ratioP2;P2;SDS_P1;SDS_P2;PMS_P1;PMS_P2;Temp;Humidity;BMP_temperature;BMP_pressure;BME280_temperature;BME280_humidity;BME280_pressure;Samples;Min_cycle;Max_cycle;Signal;HPM_P1;HPM_P2
2021/11/11 00:00:23;;;;;;;58.33;40.45;;;7.60;99.90;;;;;;4877310;29;20044;-73
2021/11/11 00:02:49;;;;;;;43.78;33.55;;;7.60;99.90;;;;;;4895297;29;20048;-74
2021/11/11 00:05:15;;;;;;;47.20;31.55;;;7.60;99.90;;;;;;4896439;29;20037;-73
2021/11/11 00:07:41;;;;;;;59.08;39.40;;;7.60;99.90;;;;;;4879013;29;20389;-74
2021/11/11 00:10:09;;;;;;;61.47;39.75;;;7.50;99.90;;;;;;4894832;29;20036;-73
2021/11/11 00:12:35;;;;;;;57.40;38.13;;;7.50;99.90;;;;;;4891261;29;20051;-73
2021/11/11 00:15:03;;;;;;;52.70;37.17;;;7.40;99.90;;;;;;4877251;29;20485;-73
2021/11/11 00:17:29;;;;;;;48.80;34.58;;;7.50;99.90;;;;;;4894157;29;20084;-73
2021/11/11 00:19:54;;;;;;;40.92;30.70;;;7.40;99.90;;;;;;4896381;29;20025;-74
2021/11/11 00:22:20;;;;;;;33.55;26.55;;;7.40;99.90;;;;;;4895656;29;20437;-74
2021/11/11 00:24:45;;;;;;;34.13;23.45;;;7.30;99.90;;;;;;4896214;29;20036;-73
2021/11/11 00:27:11;;;;;;;30.30;22.70;;;7.30;99.90;;;;;;4895072;29;20067;-74
2021/11/11 00:29:37;;;;;;;23.50;19.27;;;7.20;99.90;;;;;;4894645;29;20041;-74
2021/11/11 00:32:04;;;;;;;21.25;16.80;;;7.20;99.90;;;;;;4879131;29;20036;-75
2021/11/11 00:34:30;;;;;;;21.35;16.00;;;7.20;99.90;;;;;;4896300;29;20028;-75
2021/11/11 00:36:56;;;;;;;20.30;14.75;;;7.20;99.90;;;;;;4876719;29;20023;-75
2021/11/11 00:39:21;;;;;;;20.63;15.43;;;7.10;99.90;;;;;;4894857;29;20043;-74
2021/11/11 00:41:47;;;;;;;23.20;15.60;;;7.10;99.90;;;;;;4878871;29;20100;-74
2021/11/11 00:44:13;;;;;;;24.95;16.25;;;7.10;99.90;;;;;;4879527;29;20033;-73
2021/11/11 00:46:39;;;;;;;21.85;15.45;;;7.10;99.90;;;;;;4895003;29;20077;-74
2021/11/11 00:49:07;;;;;;;21.35;15.55;;;7.00;99.90;;;;;;4893127;29;20052;-73
2021/11/11 00:51:37;;;;;;;20.70;16.15;;;7.00;99.90;;;;;;4896382;29;20080;-75
2021/11/11 00:54:04;;;;;;;18.48;15.00;;;7.00;99.90;;;;;;4894713;29;20028;-74
2021/11/11 00:56:30;;;;;;;19.35;15.00;;;7.10;99.90;;;;;;4896945;29;20032;-74
2021/11/11 00:58:56;;;;;;;21.00;16.23;;;7.10;99.90;;;;;;4899462;29;20036;-74
2021/11/11 01:01:22;;;;;;;23.92;17.65;;;7.10;99.90;;;;;;4900126;29;20051;-74
2021/11/11 01:03:49;;;;;;;25.00;17.70;;;7.10;99.90;;;;;;4899072;29;20393;-73
2021/11/11 01:06:17;;;;;;;29.60;17.08;;;7.20;99.90;;;;;;4899570;29;20464;-73
2021/11/11 01:08:43;;;;;;;24.92;16.90;;;7.30;99.90;;;;;;4899619;29;20389;-73
2021/11/11 01:11:09;;;;;;;22.63;15.15;;;7.30;99.90;;;;;;4898815;29;20032;-74
2021/11/11 01:13:36;;;;;;;18.38;14.85;;;7.30;99.90;;;;;;4898386;29;20028;-73
2021/11/11 01:16:03;;;;;;;26.25;16.58;;;7.40;99.90;;;;;;4899428;29;20021;-75
2021/11/11 01:18:28;;;;;;;23.80;15.85;;;7.40;99.90;;;;;;4898937;29;20029;-74
2021/11/11 01:20:54;;;;;;;27.58;17.38;;;7.40;99.90;;;;;;4899483;29;20028;-75
2021/11/11 01:23:20;;;;;;;22.27;17.05;;;7.40;99.90;;;;;;4899558;29;20064;-75
2021/11/11 01:25:45;;;;;;;22.83;16.90;;;7.40;99.90;;;;;;4898651;29;20055;-74
2021/11/11 01:28:11;;;;;;;23.10;16.67;;;7.40;99.90;;;;;;4897532;29;20037;-73
2021/11/11 01:30:40;;;;;;;24.05;18.63;;;7.40;99.90;;;;;;4899449;29;20036;-74
2021/11/11 01:33:06;;;;;;;23.58;16.95;;;7.40;99.90;;;;;;4898319;29;20461;-74
2021/11/11 01:35:32;;;;;;;22.10;17.05;;;7.40;99.90;;;;;;4899360;29;20032;-74
2021/11/11 01:37:58;;;;;;;26.88;18.67;;;7.50;99.90;;;;;;4896785;29;20528;-73
2021/11/11 01:40:23;;;;;;;23.80;17.27;;;7.50;99.90;;;;;;4897994;29;20025;-73
2021/11/11 01:42:57;;;;;;;21.88;16.90;;;7.60;99.90;;;;;;4899051;29;20024;-74
2021/11/11 01:45:25;;;;;;;23.23;16.33;;;7.60;99.90;;;;;;4897338;29;20084;-74
2021/11/11 01:47:51;;;;;;;20.98;15.98;;;7.70;99.90;;;;;;4908068;29;20048;-74
2021/11/11 01:50:16;;;;;;;19.70;14.70;;;7.70;99.90;;;;;;4917564;29;20111;-75
2021/11/11 01:52:42;;;;;;;20.85;15.02;;;7.80;99.90;;;;;;4900079;29;20063;-74
2021/11/11 01:55:08;;;;;;;20.15;15.18;;;7.80;99.90;;;;;;4900284;29;20028;-73
2021/11/11 01:57:34;;;;;;;21.45;15.90;;;7.80;99.90;;;;;;4900819;29;20028;-73
2021/11/11 02:00:01;;;;;;;18.83;14.70;;;7.90;99.90;;;;;;4916597;29;20030;-73
2021/11/11 02:02:28;;;;;;;20.35;15.68;;;7.90;99.90;;;;;;4900641;29;20028;-74
2021/11/11 02:04:54;;;;;;;20.10;14.85;;;7.90;99.90;;;;;;4900661;29;20048;-74
2021/11/11 02:07:20;;;;;;;20.65;15.20;;;8.00;99.90;;;;;;4898587;29;20064;-73
2021/11/11 02:09:47;;;;;;;19.15;15.35;;;8.00;99.90;;;;;;4917220;29;20036;-73
2021/11/11 02:12:13;;;;;;;21.80;16.02;;;8.00;99.90;;;;;;4917197;29;20021;-73
2021/11/11 02:14:38;;;;;;;26.38;16.95;;;8.10;99.90;;;;;;4915588;29;20153;-74
2021/11/11 02:17:04;;;;;;;27.13;17.77;;;8.10;99.90;;;;;;4917021;29;20036;-73
2021/11/11 02:19:30;;;;;;;23.00;16.65;;;8.10;99.90;;;;;;4917384;29;20067;-73
2021/11/11 02:21:55;;;;;;;21.08;16.85;;;8.10;99.90;;;;;;4916470;29;20513;-73
2021/11/11 02:24:21;;;;;;;20.17;16.08;;;8.20;99.90;;;;;;4917315;29;20495;-74
2021/11/11 02:26:49;;;;;;;18.25;15.88;;;8.20;99.90;;;;;;4899940;29;20087;-74
2021/11/11 02:29:15;;;;;;;22.35;16.58;;;8.10;99.90;;;;;;4915959;29;20047;-74
2021/11/11 02:31:41;;;;;;;23.00;16.77;;;8.10;99.90;;;;;;4917099;29;20028;-74
2021/11/11 02:34:07;;;;;;;21.95;15.82;;;8.20;99.90;;;;;;4913920;29;20556;-73
2021/11/11 02:36:32;;;;;;;20.02;15.00;;;8.20;99.90;;;;;;4916821;29;20028;-74
2021/11/11 02:39:00;;;;;;;18.60;14.88;;;8.20;99.90;;;;;;4916520;29;20024;-73
2021/11/11 02:41:26;;;;;;;21.65;15.55;;;8.20;99.90;;;;;;4899360;29;20747;-74
2021/11/11 02:43:52;;;;;;;26.58;17.48;;;8.20;99.90;;;;;;4899742;29;20035;-72
2021/11/11 02:46:17;;;;;;;20.45;15.50;;;8.20;99.90;;;;;;4899508;29;20406;-75
2021/11/11 02:48:43;;;;;;;21.75;16.42;;;8.30;99.90;;;;;;4915331;29;20056;-75
2021/11/11 02:51:09;;;;;;;21.70;16.08;;;8.30;99.90;;;;;;4899331;29;20030;-73
2021/11/11 02:53:35;;;;;;;22.10;16.40;;;8.30;99.90;;;;;;4916779;29;20115;-72
2021/11/11 02:56:00;;;;;;;23.73;17.42;;;8.30;99.90;;;;;;4914806;29;20385;-73
2021/11/11 02:58:26;;;;;;;22.27;17.10;;;8.30;99.90;;;;;;4898899;29;20035;-72
2021/11/11 03:01:03;;;;;;;23.35;17.08;;;8.30;99.90;;;;;;4916646;29;20439;-73
2021/11/11 03:03:28;;;;;;;24.50;16.85;;;8.30;99.90;;;;;;4916051;29;20051;-73
2021/11/11 03:05:55;;;;;;;20.20;16.15;;;8.30;99.90;;;;;;4916516;29;20119;-72
2021/11/11 03:08:22;;;;;;;20.65;16.95;;;8.30;99.90;;;;;;4914691;29;20103;-72
2021/11/11 03:10:48;;;;;;;22.25;16.77;;;8.30;99.90;;;;;;4915531;29;20106;-73
2021/11/11 03:13:15;;;;;;;21.27;17.23;;;8.20;99.90;;;;;;4915970;29;20102;-73
2021/11/11 03:15:42;;;;;;;22.08;15.68;;;8.20;99.90;;;;;;4916319;29;20024;-73
2021/11/11 03:18:16;;;;;;;27.83;17.85;;;8.20;99.90;;;;;;4896580;29;20503;-73
2021/11/11 03:20:42;;;;;;;23.95;16.95;;;8.20;99.90;;;;;;4916354;29;20032;-73
2021/11/11 03:23:07;;;;;;;21.60;16.83;;;8.20;99.90;;;;;;4910211;29;20036;-72
2021/11/11 03:25:34;;;;;;;21.45;16.02;;;8.20;99.90;;;;;;4897105;29;20115;-72
2021/11/11 03:28:00;;;;;;;21.30;15.73;;;8.20;99.90;;;;;;4904072;29;20051;-73
2021/11/11 03:30:27;;;;;;;21.75;16.05;;;8.10;99.90;;;;;;4914908;29;20035;-73
2021/11/11 03:32:55;;;;;;;23.40;17.17;;;8.10;99.90;;;;;;4911467;29;20504;-73
2021/11/11 03:35:21;;;;;;;23.98;17.17;;;8.10;99.90;;;;;;4897075;29;20037;-73
2021/11/11 03:37:50;;;;;;;21.92;16.27;;;8.10;99.90;;;;;;4898006;29;20504;-73
2021/11/11 03:40:23;;;;;;;21.77;15.80;;;8.10;99.90;;;;;;4911638;29;20028;-73
2021/11/11 03:42:49;;;;;;;21.48;15.65;;;8.10;99.90;;;;;;4915566;29;20100;-73
2021/11/11 03:45:17;;;;;;;24.30;15.63;;;8.10;99.90;;;;;;4914957;29;20083;-73
2021/11/11 03:47:44;;;;;;;21.45;15.10;;;8.10;99.90;;;;;;4907447;29;20144;-72
2021/11/11 03:50:11;;;;;;;21.25;15.77;;;8.10;99.90;;;;;;4896295;29;20043;-72
2021/11/11 03:52:37;;;;;;;24.42;16.98;;;8.10;99.90;;;;;;4896403;29;20103;-73
2021/11/11 03:55:05;;;;;;;20.05;15.48;;;8.20;99.90;;;;;;4879581;29;20477;-73
2021/11/11 03:57:30;;;;;;;21.15;15.60;;;8.20;99.90;;;;;;4896717;29;20024;-73
2021/11/11 03:59:56;;;;;;;22.58;16.38;;;8.20;99.90;;;;;;4895696;29;20378;-73
2021/11/11 04:02:23;;;;;;;23.17;15.68;;;8.20;99.90;;;;;;4895453;29;20370;-73
2021/11/11 04:04:50;;;;;;;20.65;16.55;;;8.20;99.90;;;;;;4879553;29;20039;-73
2021/11/11 04:07:16;;;;;;;23.33;16.35;;;8.20;99.90;;;;;;4895732;29;20036;-72
2021/11/11 04:09:41;;;;;;;22.23;15.75;;;8.20;99.90;;;;;;4879388;29;20037;-73
2021/11/11 04:12:07;;;;;;;22.05;15.57;;;8.20;99.90;;;;;;4896047;29;20064;-73
2021/11/11 04:14:33;;;;;;;21.05;15.20;;;8.20;99.90;;;;;;4878632;29;20029;-73
2021/11/11 04:16:59;;;;;;;23.23;15.75;;;8.20;99.90;;;;;;4896111;29;20032;-73
2021/11/11 04:19:25;;;;;;;23.42;17.02;;;8.20;99.90;;;;;;4879831;29;20042;-73
2021/11/11 04:21:50;;;;;;;21.58;15.63;;;8.20;99.90;;;;;;4896111;29;20017;-72
2021/11/11 04:24:16;;;;;;;21.95;15.88;;;8.20;99.90;;;;;;4896173;29;20056;-72
2021/11/11 04:26:53;;;;;;;21.92;15.27;;;8.30;99.90;;;;;;4895685;29;20025;-73
2021/11/11 04:29:22;;;;;;;22.25;15.23;;;8.30;99.90;;;;;;4895974;29;20071;-73
2021/11/11 04:31:56;;;;;;;23.05;16.90;;;8.30;99.90;;;;;;4899780;29;20111;-72
2021/11/11 04:34:23;;;;;;;20.88;16.67;;;8.30;99.90;;;;;;4899840;29;20039;-73
2021/11/11 04:42:33;;;;;;;17.13;13.95;;;8.30;99.90;;;;;;4899541;29;20048;-72
2021/11/11 04:47:56;;;;;;;22.52;16.15;;;8.30;99.90;;;;;;4899850;29;20055;-72
2021/11/11 04:50:50;;;;;;;18.98;14.52;;;8.30;99.90;;;;;;4900050;29;20040;-73
2021/11/11 04:59:33;;;;;;;19.75;14.80;;;8.30;99.90;;;;;;4899797;29;20021;-74
2021/11/11 05:01:42;;;;;;;21.00;15.02;;;8.40;99.90;;;;;;4899881;29;20084;-73
2021/11/11 05:04:08;;;;;;;20.92;14.20;;;8.40;99.90;;;;;;4899000;29;20043;-73
2021/11/11 05:06:33;;;;;;;21.50;15.55;;;8.40;99.90;;;;;;4899759;29;20473;-73
2021/11/11 05:08:59;;;;;;;21.67;15.05;;;8.40;99.90;;;;;;4898528;29;20493;-73
2021/11/11 05:11:25;;;;;;;22.23;14.98;;;8.40;99.90;;;;;;4883001;29;20545;-72
2021/11/11 05:13:52;;;;;;;21.83;15.73;;;8.40;99.90;;;;;;4899605;29;20025;-73
2021/11/11 05:16:18;;;;;;;23.98;15.60;;;8.50;99.90;;;;;;4898722;29;20032;-72
2021/11/11 05:18:43;;;;;;;22.95;15.35;;;8.40;99.90;;;;;;4899410;29;20437;-72
2021/11/11 05:21:09;;;;;;;22.80;16.35;;;8.50;99.90;;;;;;4882019;29;20148;-72
2021/11/11 05:23:34;;;;;;;22.52;17.38;;;8.40;99.90;;;;;;4898952;29;20080;-73
2021/11/11 05:26:00;;;;;;;22.40;16.40;;;8.40;99.90;;;;;;4899127;29;20029;-72
2021/11/11 05:28:26;;;;;;;26.20;17.00;;;8.40;99.90;;;;;;4899246;29;20028;-72
2021/11/11 05:30:51;;;;;;;24.52;16.27;;;8.40;99.90;;;;;;4898734;29;20040;-72
2021/11/11 05:33:17;;;;;;;20.17;14.98;;;8.40;99.90;;;;;;4882384;29;20505;-74
2021/11/11 05:35:43;;;;;;;21.15;15.90;;;8.40;99.90;;;;;;4882353;29;20056;-74
2021/11/11 05:38:08;;;;;;;22.58;16.52;;;8.40;99.90;;;;;;4898071;29;20477;-73
2021/11/11 05:40:34;;;;;;;20.85;15.50;;;8.50;99.90;;;;;;4899350;29;20120;-73
2021/11/11 05:42:59;;;;;;;20.42;15.85;;;8.40;99.90;;;;;;4898435;29;20033;-72
2021/11/11 05:45:25;;;;;;;21.95;15.50;;;8.50;99.90;;;;;;4897593;29;20024;-72
2021/11/11 05:47:51;;;;;;;20.50;14.73;;;8.50;99.90;;;;;;4899109;29;20104;-71
2021/11/11 05:50:18;;;;;;;20.75;14.80;;;8.50;99.90;;;;;;4894436;29;20043;-72
2021/11/11 05:52:44;;;;;;;19.92;15.43;;;8.50;99.90;;;;;;4903777;29;20489;-72
2021/11/11 05:55:10;;;;;;;20.88;15.27;;;8.50;99.90;;;;;;4898475;29;20119;-72
2021/11/11 05:57:36;;;;;;;21.52;15.15;;;8.60;99.90;;;;;;4898611;29;20363;-72
2021/11/11 06:00:04;;;;;;;20.02;15.10;;;8.60;99.90;;;;;;4880981;29;20037;-74
2021/11/11 06:02:30;;;;;;;20.80;15.45;;;8.60;99.90;;;;;;4898758;29;20477;-72
2021/11/11 06:04:55;;;;;;;20.27;14.95;;;8.60;99.90;;;;;;4881975;29;20036;-74
2021/11/11 06:07:21;;;;;;;20.52;15.05;;;8.60;99.90;;;;;;4898036;29;20029;-72
2021/11/11 06:09:47;;;;;;;20.42;15.50;;;8.60;99.90;;;;;;4902876;29;20064;-72
2021/11/11 06:12:12;;;;;;;21.33;16.05;;;8.60;99.90;;;;;;4873800;29;20035;-74
2021/11/11 06:14:38;;;;;;;25.70;16.75;;;8.60;99.90;;;;;;4893938;29;20021;-73
2021/11/11 06:17:07;;;;;;;22.65;15.77;;;8.60;99.90;;;;;;4882044;29;20431;-74
2021/11/11 06:19:35;;;;;;;23.67;16.85;;;8.60;99.90;;;;;;4896972;29;20044;-74
2021/11/11 06:22:04;;;;;;;26.00;17.50;;;8.60;99.90;;;;;;4897102;29;20025;-74
2021/11/11 06:24:30;;;;;;;19.30;14.90;;;8.60;99.90;;;;;;4898449;29;20040;-72
2021/11/11 06:26:57;;;;;;;21.60;16.85;;;8.70;99.90;;;;;;4897036;29;20097;-73
2021/11/11 06:29:23;;;;;;;21.45;15.43;;;8.60;99.90;;;;;;4878351;29;20041;-77
2021/11/11 06:31:49;;;;;;;22.80;16.00;;;8.70;99.90;;;;;;4887528;29;20032;-74
2021/11/11 06:34:14;;;;;;;23.17;16.50;;;8.70;99.90;;;;;;4896005;29;20047;-73
2021/11/11 06:36:40;;;;;;;21.35;16.35;;;8.60;99.90;;;;;;4897824;29;20020;-73
2021/11/11 06:39:06;;;;;;;22.73;16.63;;;8.60;99.90;;;;;;4879734;29;20116;-76
2021/11/11 06:41:32;;;;;;;23.20;16.38;;;8.70;99.90;;;;;;4897519;29;20036;-75
2021/11/11 06:43:57;;;;;;;23.23;16.45;;;8.60;99.90;;;;;;4897217;29;20394;-74
2021/11/11 06:46:23;;;;;;;23.55;17.25;;;8.60;99.90;;;;;;4880996;29;20024;-74
2021/11/11 06:48:49;;;;;;;19.95;15.68;;;8.60;99.90;;;;;;4913528;29;20123;-74
2021/11/11 06:51:15;;;;;;;20.48;16.27;;;8.70;99.90;;;;;;4915527;29;20358;-72
2021/11/11 06:53:41;;;;;;;23.40;15.80;;;8.70;99.90;;;;;;4913177;29;20032;-72
2021/11/11 06:56:07;;;;;;;24.20;15.63;;;8.70;99.90;;;;;;4898596;29;20035;-72
2021/11/11 06:58:32;;;;;;;20.00;15.57;;;8.70;99.90;;;;;;4916570;29;20028;-72
2021/11/11 07:01:00;;;;;;;22.77;15.55;;;8.70;99.90;;;;;;4914603;29;20103;-72
2021/11/11 07:03:27;;;;;;;21.23;16.27;;;8.70;99.90;;;;;;4915391;29;20038;-72
2021/11/11 07:05:53;;;;;;;22.60;17.05;;;8.70;99.90;;;;;;4916546;29;20043;-71
2021/11/11 07:08:19;;;;;;;25.08;17.42;;;8.70;99.90;;;;;;4915252;29;20035;-72
2021/11/11 07:10:48;;;;;;;23.58;17.00;;;8.60;99.90;;;;;;4913332;29;20032;-72
2021/11/11 07:13:14;;;;;;;22.90;17.02;;;8.60;99.90;;;;;;4898486;29;20115;-73
2021/11/11 07:15:41;;;;;;;23.65;17.27;;;8.70;99.90;;;;;;4915468;29;20028;-73
2021/11/11 07:18:08;;;;;;;24.83;17.40;;;8.60;99.90;;;;;;4897222;29;20036;-73
2021/11/11 07:20:34;;;;;;;24.23;17.95;;;8.60;99.90;;;;;;4915387;29;20055;-75
2021/11/11 07:23:02;;;;;;;24.30;17.23;;;8.70;99.90;;;;;;4897305;29;20028;-72
2021/11/11 07:25:29;;;;;;;21.40;16.23;;;8.70;99.90;;;;;;4915025;29;20028;-73
2021/11/11 07:27:55;;;;;;;24.80;17.35;;;8.70;99.90;;;;;;4916031;29;20103;-72
2021/11/11 07:30:21;;;;;;;23.27;15.98;;;8.80;99.90;;;;;;4914524;29;20127;-73
2021/11/11 07:32:47;;;;;;;26.65;18.00;;;8.80;99.90;;;;;;4916121;29;20528;-74
2021/11/11 07:35:14;;;;;;;26.75;18.88;;;8.80;99.90;;;;;;4914302;29;20032;-74
2021/11/11 07:37:50;;;;;;;24.95;18.17;;;8.80;99.90;;;;;;4915249;29;20385;-77
2021/11/11 07:40:17;;;;;;;21.17;16.70;;;8.80;99.90;;;;;;4914264;29;20111;-72
2021/11/11 07:42:43;;;;;;;22.92;16.52;;;8.80;99.90;;;;;;4915005;29;20035;-80
2021/11/11 07:45:10;;;;;;;22.08;15.80;;;8.80;99.90;;;;;;4914016;29;20036;-73
2021/11/11 07:47:36;;;;;;;20.25;16.05;;;8.90;99.90;;;;;;4911019;29;20127;-73
2021/11/11 07:50:04;;;;;;;22.27;16.90;;;8.90;99.90;;;;;;4879437;29;20132;-73
2021/11/11 07:52:29;;;;;;;25.40;16.23;;;8.90;99.90;;;;;;4879309;29;20024;-72
2021/11/11 07:54:56;;;;;;;20.35;16.08;;;8.90;99.90;;;;;;4879922;29;20120;-73
2021/11/11 07:57:28;;;;;;;22.70;17.42;;;8.90;99.90;;;;;;4896859;29;20033;-72
2021/11/11 07:59:55;;;;;;;24.23;18.35;;;9.00;99.90;;;;;;4896019;29;20084;-73
2021/11/11 08:02:21;;;;;;;23.38;17.58;;;9.00;99.90;;;;;;4896659;29;20059;-72
2021/11/11 08:04:47;;;;;;;23.80;17.35;;;9.00;99.90;;;;;;4895939;29;20020;-73
2021/11/11 08:07:17;;;;;;;22.23;15.95;;;9.00;99.90;;;;;;4896390;29;20108;-72
2021/11/11 08:09:43;;;;;;;21.67;15.82;;;9.10;99.90;;;;;;4896564;29;20037;-73
2021/11/11 08:12:10;;;;;;;18.80;15.15;;;9.10;99.90;;;;;;4878900;29;20437;-72
2021/11/11 08:14:35;;;;;;;22.88;16.85;;;9.10;99.90;;;;;;4896689;29;20076;-73
2021/11/11 08:17:01;;;;;;;22.50;16.48;;;9.10;99.90;;;;;;4879251;29;20028;-72
2021/11/11 08:19:27;;;;;;;21.45;16.52;;;9.10;99.90;;;;;;4895712;29;20362;-72
2021/11/11 08:21:52;;;;;;;24.38;16.48;;;9.20;99.90;;;;;;4896266;29;20028;-72
2021/11/11 08:24:18;;;;;;;22.05;16.33;;;9.10;99.90;;;;;;4879409;29;20029;-72
2021/11/11 08:26:43;;;;;;;21.40;15.85;;;9.10;99.90;;;;;;4879079;29;20032;-72
2021/11/11 08:29:09;;;;;;;21.85;16.55;;;9.10;99.90;;;;;;4896035;29;20044;-72
2021/11/11 08:31:38;;;;;;;19.95;16.95;;;9.10;99.90;;;;;;4896406;29;20378;-73
2021/11/11 08:34:03;;;;;;;23.30;16.52;;;9.10;99.90;;;;;;4895556;29;20128;-72
2021/11/11 08:36:30;;;;;;;21.95;15.68;;;9.10;99.90;;;;;;4879442;29;20104;-72
2021/11/11 08:38:57;;;;;;;18.38;15.20;;;9.10;99.90;;;;;;4879157;29;20028;-72
2021/11/11 08:41:23;;;;;;;20.73;16.65;;;9.20;99.90;;;;;;4895884;29;20028;-72
2021/11/11 08:43:49;;;;;;;23.02;16.42;;;9.20;99.90;;;;;;4896225;29;20088;-72
2021/11/11 08:46:16;;;;;;;22.00;16.90;;;9.20;99.90;;;;;;4879481;29;20116;-72
2021/11/11 08:48:41;;;;;;;20.15;16.15;;;9.20;99.90;;;;;;4911570;29;20135;-73
2021/11/11 08:51:08;;;;;;;19.85;15.80;;;9.20;99.90;;;;;;4914609;29;20112;-72
2021/11/11 08:53:33;;;;;;;24.17;17.48;;;9.30;99.90;;;;;;4898436;29;20036;-72
2021/11/11 08:55:59;;;;;;;20.08;15.73;;;9.30;99.90;;;;;;4914190;29;20377;-72
2021/11/11 08:58:29;;;;;;;21.02;16.40;;;9.30;99.90;;;;;;4915180;29;20473;-73
2021/11/11 09:00:55;;;;;;;20.48;16.70;;;9.30;99.90;;;;;;4914834;29;20138;-73
2021/11/11 09:03:21;;;;;;;22.33;16.13;;;9.40;99.90;;;;;;4914825;29;20028;-73
2021/11/11 09:05:47;;;;;;;21.48;16.95;;;9.40;99.90;;;;;;4897868;29;20037;-73
2021/11/11 09:08:14;;;;;;;22.23;17.70;;;9.40;99.90;;;;;;4896966;29;20036;-74
2021/11/11 09:10:42;;;;;;;22.55;17.70;;;9.40;99.90;;;;;;4915020;29;20028;-72
2021/11/11 09:13:08;;;;;;;23.92;17.85;;;9.50;99.90;;;;;;4897852;29;20024;-72
2021/11/11 09:15:35;;;;;;;24.23;17.88;;;9.50;99.90;;;;;;4897461;29;20038;-73
2021/11/11 09:18:03;;;;;;;21.52;17.55;;;9.50;99.90;;;;;;4900613;29;20028;-73
2021/11/11 09:20:29;;;;;;;24.88;18.90;;;9.50;99.90;;;;;;4901476;29;20366;-73
2021/11/11 09:22:56;;;;;;;24.55;18.00;;;9.60;99.90;;;;;;4917631;29;20020;-73
2021/11/11 09:25:27;;;;;;;22.83;17.42;;;9.60;99.90;;;;;;4918025;29;20024;-73
2021/11/11 09:27:54;;;;;;;20.77;17.00;;;9.60;99.90;;;;;;4918272;29;20390;-73
2021/11/11 09:30:23;;;;;;;24.33;17.38;;;9.70;99.90;;;;;;4917291;29;20046;-73
2021/11/11 09:32:49;;;;;;;21.98;17.15;;;9.70;99.90;;;;;;4917753;29;20362;-73
2021/11/11 09:35:15;;;;;;;24.63;18.90;;;9.80;99.90;;;;;;4900791;29;20349;-72
2021/11/11 09:37:41;;;;;;;24.67;18.30;;;9.80;99.90;;;;;;4900288;29;20024;-73
2021/11/11 09:40:11;;;;;;;21.15;17.40;;;9.90;99.90;;;;;;4917362;29;20039;-72
2021/11/11 09:42:37;;;;;;;25.23;19.77;;;9.90;99.90;;;;;;4918222;29;20091;-73
2021/11/11 09:45:04;;;;;;;28.45;19.20;;;9.90;99.90;;;;;;4916992;29;20067;-72
2021/11/11 09:47:32;;;;;;;28.67;20.98;;;10.00;99.90;;;;;;4917869;29;20044;-73
2021/11/11 09:49:57;;;;;;;25.30;20.70;;;10.00;99.90;;;;;;4900163;29;20591;-73
2021/11/11 09:52:25;;;;;;;27.02;19.83;;;10.00;99.90;;;;;;4917472;29;20028;-73
2021/11/11 10:00:19;;;;;;;26.77;20.25;;;10.20;99.90;;;;;;4917700;29;20039;-72
2021/11/11 10:02:44;;;;;;;28.27;20.52;;;10.20;99.90;;;;;;4900390;29;20031;-72
2021/11/11 10:05:10;;;;;;;27.50;20.52;;;10.30;99.90;;;;;;4916721;29;20024;-72
2021/11/11 10:07:36;;;;;;;29.95;20.48;;;10.30;99.90;;;;;;4900516;29;20024;-72
2021/11/11 10:10:02;;;;;;;32.83;22.08;;;10.30;99.90;;;;;;4917038;29;20051;-73
2021/11/11 10:12:29;;;;;;;30.23;19.90;;;10.30;99.90;;;;;;4916885;29;20024;-72
2021/11/11 10:15:08;;;;;;;31.63;22.08;;;10.40;99.90;;;;;;4917414;29;20468;-72
2021/11/11 10:17:41;;;;;;;32.13;20.45;;;10.40;99.90;;;;;;4917594;29;20484;-72
2021/11/11 10:20:08;;;;;;;31.63;21.48;;;10.40;99.90;;;;;;4916232;29;20037;-72
2021/11/11 10:22:36;;;;;;;29.95;19.65;;;10.40;99.90;;;;;;4917423;29;20028;-72
2021/11/11 10:25:06;;;;;;;30.00;21.45;;;10.50;99.90;;;;;;4916801;29;20107;-72
2021/11/11 10:27:44;;;;;;;27.85;19.75;;;10.50;99.90;;;;;;4898838;29;20039;-72
2021/11/11 10:30:14;;;;;;;30.95;20.55;;;10.50;99.90;;;;;;4899801;29;20032;-72
2021/11/11 10:33:06;;;;;;;27.15;19.42;;;10.60;99.90;;;;;;4916566;29;20032;-73
2021/11/11 10:35:34;;;;;;;25.92;19.17;;;10.60;99.90;;;;;;4900300;29;20036;-72
2021/11/11 10:38:06;;;;;;;25.50;18.23;;;10.60;99.90;;;;;;4916449;29;20024;-72
2021/11/11 10:40:33;;;;;;;29.63;20.52;;;10.70;99.90;;;;;;4916458;29;20044;-72
2021/11/11 10:43:02;;;;;;;26.85;19.25;;;10.70;99.90;;;;;;4899502;29;20138;-73
2021/11/11 10:45:32;;;;;;;30.65;19.70;;;10.80;99.90;;;;;;4899966;29;20107;-73
2021/11/11 10:48:00;;;;;;;26.70;18.48;;;10.80;99.90;;;;;;4898626;29;20262;-73
2021/11/11 10:50:32;;;;;;;26.48;18.67;;;10.90;99.90;;;;;;4916808;29;20051;-72
2021/11/11 10:53:00;;;;;;;24.67;18.23;;;10.90;99.90;;;;;;4899318;29;20123;-72
2021/11/11 10:55:30;;;;;;;28.25;18.77;;;10.90;99.90;;;;;;4916278;29;20020;-72
2021/11/11 10:58:32;;;;;;;25.67;18.73;;;11.00;99.90;;;;;;4899673;29;20055;-72
2021/11/11 11:01:00;;;;;;;26.83;19.00;;;11.10;99.90;;;;;;4875899;29;20037;-73
2021/11/11 11:03:46;;;;;;;27.35;20.52;;;11.10;99.90;;;;;;4892126;29;20493;-72
2021/11/11 11:06:13;;;;;;;27.45;18.88;;;11.20;99.90;;;;;;4899174;29;20028;-72
2021/11/11 11:08:59;;;;;;;26.95;17.05;;;11.30;99.90;;;;;;4898846;29;20050;-72
2021/11/11 11:11:30;;;;;;;23.73;17.50;;;11.30;99.90;;;;;;4916560;29;20032;-72
2021/11/11 11:13:59;;;;;;;25.48;18.17;;;11.40;99.90;;;;;;4899567;29;20020;-70
2021/11/11 11:16:27;;;;;;;30.40;19.98;;;11.40;99.90;;;;;;4916170;29;20039;-72
2021/11/11 11:19:03;;;;;;;29.55;19.20;;;11.40;99.90;;;;;;4916146;29;20024;-72
2021/11/11 11:21:47;;;;;;;29.27;20.15;;;11.40;99.90;;;;;;4916279;29;20020;-72
2021/11/11 11:24:15;;;;;;;33.78;20.23;;;11.50;99.90;;;;;;4898888;29;20031;-73
2021/11/11 11:26:47;;;;;;;30.95;19.58;;;11.50;99.90;;;;;;4915982;29;20020;-73
2021/11/11 11:29:25;;;;;;;27.70;21.10;;;11.50;99.90;;;;;;4898342;29;20083;-73
2021/11/11 11:34:31;;;;;;;28.15;19.05;;;11.40;99.90;;;;;;4916326;29;20055;-73
2021/11/11 11:37:01;;;;;;;25.88;18.88;;;11.40;99.90;;;;;;4914998;29;20107;-73
2021/11/11 11:39:35;;;;;;;29.60;19.98;;;11.40;99.90;;;;;;4898573;29;20424;-73
2021/11/11 11:42:30;;;;;;;28.52;19.65;;;11.30;99.90;;;;;;4898456;29;20025;-72
2021/11/11 11:45:02;;;;;;;28.70;19.05;;;11.30;99.90;;;;;;4896966;29;20131;-73
2021/11/11 11:50:11;;;;;;;28.50;18.65;;;11.20;99.90;;;;;;4914507;29;20048;-73
2021/11/11 11:52:41;;;;;;;24.48;18.35;;;11.30;99.90;;;;;;4915975;29;20382;-73
2021/11/11 11:55:13;;;;;;;30.05;19.45;;;11.30;99.90;;;;;;4915484;29;20028;-73
2021/11/11 12:03:01;;;;;;;54.05;40.03;;;11.30;99.90;;;;;;4915635;29;20032;-73
2021/11/11 12:05:46;;;;;;;62.08;45.20;;;11.30;99.90;;;;;;4898064;29;20071;-73
2021/11/11 12:11:24;;;;;;;70.40;47.70;;;11.30;99.90;;;;;;4915194;29;20044;-73
2021/11/11 12:14:20;;;;;;;48.80;33.88;;;11.30;99.90;;;;;;4915564;29;20027;-73
2021/11/11 12:38:31;;;;;;;34.33;29.67;;;11.30;99.90;;;;;;4915427;29;20503;-73
2021/11/11 12:39:57;;;;;;;36.22;26.30;;;11.30;99.90;;;;;;4914680;29;20091;-73
2021/11/11 12:42:33;;;;;;;27.85;22.92;;;11.30;99.90;;;;;;4915307;29;20027;-73
2021/11/11 12:45:21;;;;;;;30.35;23.02;;;11.30;99.90;;;;;;4897906;29;20025;-73
2021/11/11 12:47:49;;;;;;;29.50;21.77;;;11.30;99.90;;;;;;4897154;29;20084;-73
2021/11/11 12:50:36;;;;;;;27.23;20.92;;;11.30;99.90;;;;;;4897819;29;20036;-73
2021/11/11 12:53:14;;;;;;;26.65;21.08;;;11.30;99.90;;;;;;4918427;29;20568;-70
2021/11/11 12:56:00;;;;;;;27.40;21.65;;;11.40;99.90;;;;;;4919566;29;20102;-73
2021/11/11 12:58:34;;;;;;;32.88;21.95;;;11.40;99.90;;;;;;4919352;29;20418;-73
2021/11/11 13:01:16;;;;;;;25.92;19.77;;;11.40;99.90;;;;;;4917571;29;20020;-73
2021/11/11 13:03:52;;;;;;;23.02;18.52;;;11.40;99.90;;;;;;4918782;29;20048;-73
2021/11/11 13:06:43;;;;;;;29.60;21.42;;;11.50;99.90;;;;;;4918551;29;20568;-73
2021/11/11 13:09:12;;;;;;;33.40;24.42;;;11.50;99.90;;;;;;4895842;29;20501;-73
2021/11/11 13:11:44;;;;;;;46.85;34.70;;;11.50;99.90;;;;;;4918463;29;20099;-73
2021/11/11 13:14:22;;;;;;;52.20;38.60;;;11.50;99.90;;;;;;4900593;29;20059;-73
2021/11/11 13:16:54;;;;;;;38.00;28.88;;;11.50;99.90;;;;;;4901387;29;20036;-73
2021/11/11 13:19:44;;;;;;;32.15;24.65;;;11.60;99.90;;;;;;4901078;29;20036;-73
2021/11/11 13:22:17;;;;;;;32.53;22.50;;;11.50;99.90;;;;;;4917613;29;20040;-73
2021/11/11 14:02:48;;;;;;;23.75;18.55;;;11.70;99.90;;;;;;4917792;29;20028;-73
2021/11/11 15:16:35;;;;;;;43.17;29.33;;;11.50;99.90;;;;;;4915317;29;20067;-73
2021/11/11 15:44:46;;;;;;;26.60;21.20;;;11.40;99.90;;;;;;4915495;29;20035;-73
2021/11/11 15:57:02;;;;;;;22.27;16.77;;;11.40;99.90;;;;;;4913212;29;20095;-72
2021/11/11 16:04:08;;;;;;;32.35;23.52;;;11.20;99.90;;;;;;4915786;29;20043;-73